createdAt,value
2018-12-23T00:01:52.670Z,97350.83
2018-12-23T00:04:21.433Z,97346.48
2018-12-23T00:06:49.907Z,97351.08
2018-12-23T00:09:18.234Z,97357.35
2018-12-23T00:11:46.505Z,97354.29
2018-12-23T00:14:14.777Z,97366.93
2018-12-23T00:16:43.329Z,97368.25
2018-12-23T00:19:11.797Z,97363.91
2018-12-23T00:21:40.109Z,97367.91
2018-12-23T00:24:08.393Z,97365.70
2018-12-23T00:26:36.685Z,97360.66
2018-12-23T00:29:04.957Z,97356.91
2018-12-23T00:31:33.657Z,97358.34
2018-12-23T00:34:02.185Z,97364.72
2018-12-23T00:36:30.487Z,97363.97
2018-12-23T00:38:59.144Z,97367.05
2018-12-23T00:41:27.649Z,97364.75
2018-12-23T00:43:56.105Z,97360.00
2018-12-23T00:46:24.589Z,97365.61
2018-12-23T00:48:53.081Z,97362.34
2018-12-23T00:51:21.349Z,97358.66
2018-12-23T00:53:50.033Z,97363.52
2018-12-23T00:56:18.529Z,97367.11
2018-12-23T00:58:46.993Z,97375.41
2018-12-23T01:01:15.370Z,97375.98
2018-12-23T01:03:44.081Z,97373.22
2018-12-23T01:06:12.461Z,97373.77
2018-12-23T01:08:41.027Z,97378.27
2018-12-23T01:11:09.293Z,97381.17
2018-12-23T01:13:37.545Z,97379.81
2018-12-23T01:16:05.842Z,97373.24
2018-12-23T01:18:37.113Z,97373.80
2018-12-23T01:21:05.417Z,97375.16
2018-12-23T01:23:33.857Z,97380.14
2018-12-23T01:26:02.345Z,97372.98
2018-12-23T01:28:30.840Z,97378.34
2018-12-23T01:30:59.298Z,97391.07
2018-12-23T01:33:27.813Z,97389.81
2018-12-23T01:35:56.109Z,97400.08
2018-12-23T01:38:24.778Z,97406.58
2018-12-23T01:40:53.670Z,97405.97
2018-12-23T01:43:22.240Z,97410.89
2018-12-23T01:45:51.853Z,97415.72
2018-12-23T01:48:20.245Z,97414.88
2018-12-23T01:50:48.697Z,97402.44
2018-12-23T01:53:17.197Z,97405.92
2018-12-23T01:55:45.450Z,97408.13
2018-12-23T01:58:14.157Z,97409.55
2018-12-23T02:00:43.133Z,97414.36
2018-12-23T02:03:11.408Z,97410.11
2018-12-23T02:05:45.999Z,97401.78
2018-12-23T02:08:09.937Z,97409.74
2018-12-23T02:10:38.193Z,97407.97
2018-12-23T02:13:06.477Z,97405.27
2018-12-23T02:15:34.833Z,97400.77
2018-12-23T02:18:03.105Z,97399.23
2018-12-23T02:20:31.497Z,97403.39
2018-12-23T02:23:00.002Z,97406.41
2018-12-23T02:25:28.390Z,97415.55
2018-12-23T02:27:57.102Z,97406.88
2018-12-23T02:30:25.939Z,97401.72
2018-12-23T02:32:54.202Z,97398.20
2018-12-23T02:35:22.477Z,97387.01
2018-12-23T02:37:50.732Z,97406.64
2018-12-23T02:40:19.374Z,97409.27
2018-12-23T02:42:47.841Z,97405.58
2018-12-23T02:45:16.339Z,97404.34
2018-12-23T02:47:44.797Z,97411.01
2018-12-23T02:50:13.082Z,97421.36
2018-12-23T02:52:41.350Z,97416.88
2018-12-23T02:55:09.921Z,97423.09
2018-12-23T02:57:38.253Z,97422.38
2018-12-23T03:00:06.846Z,97421.55
2018-12-23T03:02:35.129Z,97429.75
2018-12-23T03:05:03.524Z,97425.86
2018-12-23T03:07:31.794Z,97428.80
2018-12-23T03:10:00.159Z,97428.80
2018-12-23T03:12:28.468Z,97420.53
2018-12-23T03:14:56.749Z,97417.25
2018-12-23T03:17:25.012Z,97423.61
2018-12-23T03:19:53.290Z,97419.92
2018-12-23T03:22:22.141Z,97418.69
2018-12-23T03:24:50.438Z,97414.94
2018-12-23T03:27:18.719Z,97416.75
2018-12-23T03:29:47.569Z,97410.39
2018-12-23T03:32:16.071Z,97412.95
2018-12-23T03:34:44.451Z,97414.45
2018-12-23T03:37:12.913Z,97401.98
2018-12-23T03:39:41.185Z,97407.42
2018-12-23T03:42:09.886Z,97408.24
2018-12-23T03:44:38.342Z,97409.36
2018-12-23T03:47:06.853Z,97400.66
2018-12-23T03:49:35.324Z,97398.71
2018-12-23T03:52:03.930Z,97395.74
2018-12-23T03:54:32.294Z,97384.31
2018-12-23T03:57:00.769Z,97387.58
2018-12-23T03:59:29.033Z,97384.61
2018-12-23T04:01:57.758Z,97382.26
2018-12-23T04:04:26.021Z,97380.31
2018-12-23T04:06:54.325Z,97392.50
2018-12-23T04:09:23.155Z,97393.28
2018-12-23T04:11:51.585Z,97397.08
2018-12-23T04:14:20.117Z,97389.39
2018-12-23T04:16:48.631Z,97395.49
2018-12-23T04:19:17.095Z,97403.07
2018-12-23T04:21:45.433Z,97394.98
2018-12-23T04:24:13.693Z,97396.48
2018-12-23T04:26:42.050Z,97401.80
2018-12-23T04:29:10.501Z,97394.12
2018-12-23T04:31:38.993Z,97398.73
2018-12-23T04:34:08.007Z,97389.61
2018-12-23T04:36:36.465Z,97389.30
2018-12-23T04:39:07.004Z,97393.40
2018-12-23T04:41:35.273Z,97389.77
2018-12-23T04:44:03.681Z,97379.26
2018-12-23T04:46:32.060Z,97382.66
2018-12-23T04:49:00.432Z,97378.55
2018-12-23T04:51:28.902Z,97373.80
2018-12-23T04:53:57.170Z,97371.59
2018-12-23T04:56:25.861Z,97377.88
2018-12-23T04:58:54.362Z,97363.95
2018-12-23T05:01:22.857Z,97367.73
2018-12-23T05:03:51.312Z,97352.47
2018-12-23T05:06:19.778Z,97347.95
2018-12-23T05:08:48.280Z,97346.98
2018-12-23T05:11:16.547Z,97356.02
2018-12-23T05:13:45.279Z,97349.66
2018-12-23T05:16:13.630Z,97351.58
2018-12-23T05:18:42.219Z,97361.48
2018-12-23T05:21:10.506Z,97358.47
2018-12-23T05:23:39.151Z,97348.94
2018-12-23T05:26:07.672Z,97354.94
2018-12-23T05:28:36.112Z,97355.14
2018-12-23T05:31:04.616Z,97354.12
2018-12-23T05:33:32.879Z,97365.69
2018-12-23T05:36:01.576Z,97355.23
2018-12-23T05:38:30.050Z,97365.58
2018-12-23T05:40:58.539Z,97365.48
2018-12-23T05:43:27.002Z,97371.42
2018-12-23T05:45:55.506Z,97365.64
2018-12-23T05:48:23.962Z,97363.03
2018-12-23T05:50:52.246Z,97366.63
2018-12-23T05:53:20.922Z,97366.72
2018-12-23T05:55:48.876Z,97366.42
2018-12-23T05:58:17.381Z,97361.23
2018-12-23T06:00:45.873Z,97359.44
2018-12-23T06:03:14.345Z,97357.08
2018-12-23T06:05:42.850Z,97364.11
2018-12-23T06:08:11.309Z,97364.45
2018-12-23T06:10:39.588Z,97364.67
2018-12-23T06:13:08.266Z,97367.12
2018-12-23T06:15:36.608Z,97372.15
2018-12-23T06:18:05.353Z,97378.45
2018-12-23T06:20:34.257Z,97372.92
2018-12-23T06:23:02.702Z,97376.70
2018-12-23T06:25:30.973Z,97374.31
2018-12-23T06:27:59.401Z,97380.70
2018-12-23T06:30:28.093Z,97387.02
2018-12-23T06:32:56.386Z,97380.92
2018-12-23T06:35:24.658Z,97374.82
2018-12-23T06:37:52.929Z,97386.81
2018-12-23T06:40:21.569Z,97385.91
2018-12-23T06:42:50.075Z,97382.52
2018-12-23T06:45:18.352Z,97379.49
2018-12-23T06:47:47.029Z,97381.64
2018-12-23T06:50:15.305Z,97382.88
2018-12-23T06:52:44.001Z,97388.94
2018-12-23T06:55:12.462Z,97376.42
2018-12-23T06:57:40.973Z,97392.21
2018-12-23T07:00:09.365Z,97387.95
2018-12-23T07:02:37.638Z,97387.03
2018-12-23T07:05:06.197Z,97384.37
2018-12-23T07:07:34.481Z,97387.25
2018-12-23T07:10:02.961Z,97388.37
2018-12-23T07:12:31.338Z,97385.64
2018-12-23T07:14:59.719Z,97373.09
2018-12-23T07:17:28.298Z,97390.00
2018-12-23T07:19:56.757Z,97389.28
2018-12-23T07:22:25.238Z,97384.31
2018-12-23T07:24:53.757Z,97389.59
2018-12-23T07:27:22.725Z,97390.53
2018-12-23T07:29:51.118Z,97400.53
2018-12-23T07:32:19.707Z,97393.59
2018-12-23T07:34:48.194Z,97386.41
2018-12-23T07:37:16.461Z,97402.47
2018-12-23T07:39:44.756Z,97400.63
2018-12-23T07:42:13.222Z,97392.11
2018-12-23T07:44:41.861Z,97394.16
2018-12-23T07:47:10.584Z,97393.95
2018-12-23T07:49:38.861Z,97385.74
2018-12-23T07:52:07.550Z,97386.77
2018-12-23T07:54:35.825Z,97394.11
2018-12-23T07:57:04.515Z,97390.32
2018-12-23T07:59:33.005Z,97391.66
2018-12-23T08:02:01.470Z,97389.29
2018-12-23T08:04:29.742Z,97389.59
2018-12-23T08:06:58.406Z,97389.89
2018-12-23T08:09:26.936Z,97383.80
2018-12-23T08:11:55.397Z,97391.02
2018-12-23T08:14:23.889Z,97387.95
2018-12-23T08:16:52.389Z,97380.26
2018-12-23T08:19:20.690Z,97382.20
2018-12-23T08:21:49.309Z,97375.53
2018-12-23T08:24:17.809Z,97370.71
2018-12-23T08:26:46.300Z,97368.86
2018-12-23T08:29:15.789Z,97366.04
2018-12-23T08:31:44.809Z,97369.88
2018-12-23T08:34:13.273Z,97367.97
2018-12-23T08:36:41.773Z,97369.21
2018-12-23T08:39:10.037Z,97374.34
2018-12-23T08:41:38.637Z,97363.66
2018-12-23T08:44:07.380Z,97368.70
2018-12-23T08:46:39.344Z,97369.00
2018-12-23T08:49:05.933Z,97354.98
2018-12-23T08:51:34.200Z,97354.04
2018-12-23T08:54:02.448Z,97353.73
2018-12-23T08:56:30.717Z,97357.14
2018-12-23T08:58:58.970Z,97352.98
2018-12-23T09:01:27.251Z,97345.43
2018-12-23T09:03:55.505Z,97347.94
2018-12-23T09:06:23.817Z,97359.08
2018-12-23T09:08:52.079Z,97347.51
2018-12-23T09:11:20.349Z,97355.52
2018-12-23T09:13:48.589Z,97339.05
2018-12-23T09:16:18.023Z,97340.22
2018-12-23T09:18:46.443Z,97337.92
2018-12-23T09:21:14.733Z,97336.59
2018-12-23T09:23:43.017Z,97331.31
2018-12-23T09:26:11.419Z,97333.41
2018-12-23T09:28:39.858Z,97334.80
2018-12-23T09:31:08.373Z,97348.36
2018-12-23T09:33:36.837Z,97333.84
2018-12-23T09:36:05.204Z,97332.67
2018-12-23T09:38:33.786Z,97323.38
2018-12-23T09:41:02.302Z,97327.47
2018-12-23T09:43:30.581Z,97329.78
2018-12-23T09:45:59.260Z,97324.50
2018-12-23T09:48:27.521Z,97328.08
2018-12-23T09:50:56.218Z,97327.77
2018-12-23T09:53:24.677Z,97328.78
2018-12-23T09:55:52.949Z,97331.31
2018-12-23T09:58:21.226Z,97323.58
2018-12-23T10:00:49.513Z,97323.95
2018-12-23T10:03:18.116Z,97312.47
2018-12-23T10:05:46.581Z,97310.96
2018-12-23T10:08:15.076Z,97304.45
2018-12-23T10:10:43.341Z,97300.59
2018-12-23T10:13:11.654Z,97299.00
2018-12-23T10:15:40.153Z,97298.48
2018-12-23T10:18:08.458Z,97302.73
2018-12-23T10:20:36.717Z,97298.73
2018-12-23T10:23:05.495Z,97301.79
2018-12-23T10:25:33.752Z,97288.06
2018-12-23T10:28:02.426Z,97284.05
2018-12-23T10:30:30.893Z,97281.11
2018-12-23T10:32:59.173Z,97279.31
2018-12-23T10:35:27.784Z,97275.20
2018-12-23T10:37:56.181Z,97270.91
2018-12-23T10:40:24.821Z,97257.25
2018-12-23T10:42:53.316Z,97262.98
2018-12-23T10:45:21.621Z,97247.19
2018-12-23T10:47:50.285Z,97245.33
2018-12-23T10:50:18.746Z,97239.97
2018-12-23T10:52:47.242Z,97243.20
2018-12-23T10:55:15.713Z,97239.16
2018-12-23T10:57:44.217Z,97232.22
2018-12-23T11:00:13.966Z,97230.33
2018-12-23T11:02:42.701Z,97232.48
2018-12-23T11:05:10.962Z,97217.39
2018-12-23T11:07:39.661Z,97215.16
2018-12-23T11:10:08.146Z,97203.95
2018-12-23T11:12:36.632Z,97208.55
2018-12-23T11:15:05.229Z,97206.73
2018-12-23T11:17:33.621Z,97193.50
2018-12-23T11:20:02.185Z,97196.05
2018-12-23T11:22:30.484Z,97192.44
2018-12-23T11:24:58.765Z,97196.70
2018-12-23T11:27:27.050Z,97180.48
2018-12-23T11:29:55.337Z,97169.11
2018-12-23T11:32:23.948Z,97164.02
2018-12-23T11:34:52.254Z,97156.77
2018-12-23T11:37:21.096Z,97157.69
2018-12-23T11:39:49.505Z,97152.05
2018-12-23T11:42:17.769Z,97146.37
2018-12-23T11:44:46.061Z,97136.66
2018-12-23T11:47:14.326Z,97133.42
2018-12-23T11:49:42.617Z,97127.19
2018-12-23T11:52:10.881Z,97113.73
2018-12-23T11:54:39.157Z,97112.48
2018-12-23T11:57:07.425Z,97112.00
2018-12-23T11:59:35.690Z,97099.13
2018-12-23T12:02:04.209Z,97091.45
2018-12-23T12:04:32.493Z,97094.41
2018-12-23T12:07:01.675Z,97087.96
2018-12-23T12:09:30.173Z,97082.17
2018-12-23T12:11:58.441Z,97068.08
2018-12-23T12:14:27.225Z,97065.30
2018-12-23T12:16:55.613Z,97060.88
2018-12-23T12:19:24.120Z,97063.18
2018-12-23T12:21:52.588Z,97057.00
2018-12-23T12:24:21.078Z,97059.70
2018-12-23T12:26:49.362Z,97054.61
2018-12-23T12:29:17.669Z,97046.66
2018-12-23T12:31:45.937Z,97034.61
2018-12-23T12:34:14.469Z,97034.49
2018-12-23T12:36:42.771Z,97021.08
2018-12-23T12:39:12.461Z,97018.00
2018-12-23T12:41:40.746Z,97012.14
2018-12-23T12:44:09.017Z,97011.10
2018-12-23T12:46:37.305Z,96994.05
2018-12-23T12:49:05.580Z,96985.68
2018-12-23T12:51:33.870Z,96976.94
2018-12-23T12:54:02.212Z,96976.38
2018-12-23T12:56:30.495Z,96968.63
2018-12-23T12:58:58.761Z,96967.89
2018-12-23T13:01:27.058Z,96959.30
2018-12-23T13:03:55.309Z,96952.63
2018-12-23T13:06:23.583Z,96943.59
2018-12-23T13:09:00.323Z,96937.62
2018-12-23T13:11:23.426Z,96936.98
2018-12-23T13:13:51.705Z,96937.51
2018-12-23T13:16:19.993Z,96939.36
2018-12-23T13:18:48.681Z,96930.43
2018-12-23T13:21:17.182Z,96924.77
2018-12-23T13:23:45.475Z,96914.02
2018-12-23T13:26:14.161Z,96895.75
2018-12-23T13:28:42.425Z,96892.98
2018-12-23T13:31:10.720Z,96884.09
2018-12-23T13:33:38.989Z,96876.64
2018-12-23T13:36:09.622Z,96872.24
2018-12-23T13:38:37.947Z,96863.42
2018-12-23T13:41:13.745Z,96854.70
2018-12-23T13:43:56.765Z,96847.33
2018-12-23T13:47:11.334Z,96844.14
2018-12-23T13:49:57.628Z,96837.96
2018-12-23T13:54:40.454Z,96837.05
2018-12-23T13:57:17.530Z,96832.16
2018-12-23T13:59:59.895Z,96826.90
2018-12-23T14:04:54.521Z,96821.05
2018-12-23T14:07:34.294Z,96809.20
2018-12-23T14:10:44.950Z,96801.98
2018-12-23T14:13:13.238Z,96799.20
2018-12-23T14:15:42.226Z,96796.64
2018-12-23T14:18:10.542Z,96791.66
2018-12-23T14:20:39.181Z,96785.19
2018-12-23T14:23:08.406Z,96782.81
2018-12-23T14:25:37.157Z,96778.03
2018-12-23T14:28:10.289Z,96784.14
2018-12-23T14:30:38.745Z,96775.75
2018-12-23T14:33:07.033Z,96763.66
2018-12-23T14:35:35.721Z,96758.42
2018-12-23T14:38:04.218Z,96754.02
2018-12-23T14:40:32.695Z,96745.18
2018-12-23T14:43:01.007Z,96738.04
2018-12-23T14:45:29.295Z,96736.86
2018-12-23T14:47:57.673Z,96737.72
2018-12-23T14:50:26.093Z,96728.99
2018-12-23T14:52:54.391Z,96725.81
2018-12-23T14:55:23.150Z,96730.23
2018-12-23T14:58:54.127Z,96726.05
2018-12-23T15:01:22.454Z,96719.17
2018-12-23T15:03:50.986Z,96721.09
2018-12-23T15:06:19.450Z,96713.09
2018-12-23T15:08:48.602Z,96712.05
2018-12-23T15:11:16.995Z,96701.81
2018-12-23T15:13:45.425Z,96694.73
2018-12-23T15:16:13.897Z,96685.33
2018-12-23T15:18:44.133Z,96685.82
2018-12-23T15:21:12.409Z,96683.87
2018-12-23T15:23:40.749Z,96687.48
2018-12-23T15:26:09.044Z,96671.58
2018-12-23T15:28:37.403Z,96659.84
2018-12-23T15:31:05.803Z,96658.73
2018-12-23T15:33:34.309Z,96649.70
2018-12-23T15:36:02.641Z,96646.25
2018-12-23T15:38:31.343Z,96642.83
2018-12-23T15:40:59.641Z,96644.48
2018-12-23T15:43:28.210Z,96640.75
2018-12-23T15:45:56.561Z,96637.25
2018-12-23T15:48:24.879Z,96634.91
2018-12-23T15:50:53.582Z,96630.84
2018-12-23T15:53:22.157Z,96628.12
2018-12-23T15:55:50.646Z,96627.23
2018-12-23T15:58:19.101Z,96628.95
2018-12-23T16:00:47.690Z,96623.95
2018-12-23T16:03:16.058Z,96619.69
2018-12-23T16:05:44.581Z,96607.13
2018-12-23T16:08:13.030Z,96607.00
2018-12-23T16:10:42.033Z,96606.58
2018-12-23T16:13:10.330Z,96594.63
2018-12-23T16:15:39.001Z,96595.64
2018-12-23T16:18:07.981Z,96608.78
2018-12-23T16:20:37.002Z,96613.80
2018-12-23T16:23:05.443Z,96607.09
2018-12-23T16:25:33.965Z,96600.84
2018-12-23T16:28:02.245Z,96591.20
2018-12-23T16:30:30.918Z,96604.85
2018-12-23T16:32:59.250Z,96602.48
2018-12-23T16:35:27.541Z,96606.20
2018-12-23T16:37:55.841Z,96598.33
2018-12-23T16:40:24.338Z,96605.36
2018-12-23T16:42:52.799Z,96595.72
2018-12-23T16:45:21.097Z,96595.28
2018-12-23T16:47:49.783Z,96598.53
2018-12-23T16:50:18.305Z,96593.83
2018-12-23T16:52:46.577Z,96585.65
2018-12-23T16:55:15.205Z,96569.06
2018-12-23T16:57:43.701Z,96576.89
2018-12-23T17:00:14.351Z,96581.16
2018-12-23T17:02:42.640Z,96570.21
2018-12-23T17:05:10.913Z,96566.50
2018-12-23T17:07:39.193Z,96571.91
2018-12-23T17:10:08.774Z,96561.52
2018-12-23T17:12:37.077Z,96550.58
2018-12-23T17:15:06.775Z,96547.98
2018-12-23T17:17:35.149Z,96546.41
2018-12-23T17:20:03.733Z,96548.08
2018-12-23T17:22:32.061Z,96554.48
2018-12-23T17:25:00.647Z,96545.12
2018-12-23T17:27:28.948Z,96553.26
2018-12-23T17:29:57.534Z,96564.77
2018-12-23T17:32:26.034Z,96577.08
2018-12-23T17:34:54.337Z,96561.38
2018-12-23T17:37:22.646Z,96560.34
2018-12-23T17:39:51.018Z,96563.34
2018-12-23T17:42:19.453Z,96556.38
2018-12-23T17:44:47.923Z,96538.31
2018-12-23T17:47:16.405Z,96539.64
2018-12-23T17:49:44.885Z,96528.23
2018-12-23T17:52:13.890Z,96538.93
2018-12-23T17:54:42.358Z,96549.35
2018-12-23T17:57:10.822Z,96556.64
2018-12-23T17:59:39.158Z,96557.70
2018-12-23T18:02:07.459Z,96538.73
2018-12-23T18:04:35.762Z,96541.70
2018-12-23T18:07:04.261Z,96541.74
2018-12-23T18:09:32.757Z,96541.50
2018-12-23T18:12:01.259Z,96531.13
2018-12-23T18:14:29.658Z,96537.89
2018-12-23T18:16:57.943Z,96542.16
2018-12-23T18:19:26.692Z,96531.24
2018-12-23T18:21:54.981Z,96546.74
2018-12-23T18:24:23.646Z,96543.01
2018-12-23T18:26:51.930Z,96539.31
2018-12-23T18:29:20.618Z,96532.91
2018-12-23T18:31:49.069Z,96532.73
2018-12-23T18:34:17.569Z,96530.34
2018-12-23T18:36:45.854Z,96526.35
2018-12-23T18:39:14.152Z,96523.92
2018-12-23T18:41:42.423Z,96515.64
2018-12-23T18:44:10.974Z,96509.27
2018-12-23T18:46:39.470Z,96506.84
2018-12-23T18:49:07.747Z,96507.14
2018-12-23T18:51:36.442Z,96517.36
2018-12-23T18:54:04.833Z,96520.59
2018-12-23T18:56:39.038Z,96526.79
2018-12-23T18:59:07.318Z,96516.08
2018-12-23T19:01:37.335Z,96521.96
2018-12-23T19:04:05.618Z,96516.13
2018-12-23T19:06:33.974Z,96522.55
2018-12-23T19:09:13.869Z,96510.49
2018-12-23T19:12:05.862Z,96514.51
2018-12-23T19:15:19.262Z,96503.05
2018-12-23T19:18:06.294Z,96488.58
2018-12-23T19:20:47.953Z,96486.73
2018-12-23T19:25:27.969Z,96483.54
2018-12-23T19:28:39.941Z,96498.05
2018-12-23T19:31:18.213Z,96492.15
2018-12-23T19:33:56.989Z,96483.83
2018-12-23T19:40:50.198Z,96491.89
2018-12-23T19:43:38.552Z,96499.17
2018-12-23T19:46:22.503Z,96478.83
2018-12-23T19:49:02.410Z,96482.30
2018-12-23T19:52:14.814Z,96491.95
2018-12-23T19:56:00.820Z,96481.25
2018-12-23T19:59:06.509Z,96481.25
2018-12-23T20:02:22.376Z,96478.32
2018-12-23T20:05:44.447Z,96479.92
2018-12-23T20:08:59.150Z,96481.81
2018-12-23T20:12:00.722Z,96469.52
2018-12-23T20:15:25.560Z,96470.05
2018-12-23T20:18:27.772Z,96471.41
2018-12-23T20:21:24.348Z,96471.41
2018-12-23T20:24:33.690Z,96470.63
2018-12-23T20:27:43.716Z,96470.63
2018-12-23T20:30:59.534Z,96454.23
2018-12-23T20:34:00.137Z,96462.58
2018-12-23T20:37:19.713Z,96456.68
2018-12-23T20:40:24.788Z,96440.29
2018-12-23T20:43:52.757Z,96448.61
2018-12-23T20:47:05.899Z,96451.58
2018-12-23T20:50:06.329Z,96454.51
2018-12-23T20:52:57.540Z,96464.44
2018-12-23T20:56:00.790Z,96458.28
2018-12-23T20:59:17.724Z,96452.91
2018-12-23T21:02:28.531Z,96454.80
2018-12-23T21:05:10.647Z,96452.36
2018-12-23T21:08:17.026Z,96454.52
2018-12-23T21:11:16.012Z,96464.98
2018-12-23T21:14:15.926Z,96465.53
2018-12-23T21:17:37.828Z,96458.02
2018-12-23T21:21:12.353Z,96444.86
2018-12-23T21:24:19.629Z,96452.12
2018-12-23T21:27:25.278Z,96457.48
2018-12-23T21:30:22.124Z,96472.50
2018-12-23T21:33:20.554Z,96460.96
2018-12-23T21:36:30.845Z,96436.27
2018-12-23T21:39:47.116Z,96427.41
2018-12-23T21:42:40.394Z,96435.47
2018-12-23T21:46:05.218Z,96433.86
2018-12-23T21:49:33.384Z,96437.34
2018-12-23T21:52:29.675Z,96446.20
2018-12-23T21:55:38.504Z,96436.27
2018-12-23T21:58:46.867Z,96423.12
2018-12-23T22:01:51.182Z,96425.28
2018-12-23T22:04:40.172Z,96423.67
2018-12-23T22:07:38.438Z,96406.73
2018-12-23T22:10:48.505Z,96419.36
2018-12-23T22:13:27.014Z,96429.84
2018-12-23T22:15:56.119Z,96421.25
2018-12-23T22:18:25.999Z,96412.11
2018-12-23T22:20:55.112Z,96409.42
2018-12-23T22:23:25.391Z,96407.28
2018-12-23T22:25:55.541Z,96400.03
2018-12-23T22:28:26.525Z,96413.72
2018-12-23T22:30:55.605Z,96406.23
2018-12-23T22:33:24.716Z,96406.77
2018-12-23T22:35:53.810Z,96399.78
2018-12-23T22:38:22.941Z,96408.09
2018-12-23T22:41:01.289Z,96401.38
2018-12-23T22:43:30.426Z,96397.11
2018-12-23T22:45:59.535Z,96388.52
2018-12-23T22:48:28.660Z,96387.97
2018-12-23T22:50:57.753Z,96393.88
2018-12-23T22:53:26.859Z,96394.42
2018-12-23T22:55:55.956Z,96404.06
2018-12-23T22:58:25.109Z,96394.95
2018-12-23T23:00:54.203Z,96398.45
2018-12-23T23:03:23.314Z,96382.88
2018-12-23T23:05:52.408Z,96394.67
2018-12-23T23:08:21.533Z,96394.95
2018-12-23T23:10:50.868Z,96401.68
2018-12-23T23:13:19.990Z,96415.62
2018-12-23T23:15:49.067Z,96414.55
2018-12-23T23:18:18.680Z,96442.70
2018-12-23T23:20:47.782Z,96487.13
2018-12-23T23:23:16.908Z,96506.06
2018-12-23T23:25:46.002Z,96544.50
2018-12-23T23:28:15.103Z,96559.38
2018-12-23T23:30:44.354Z,96576.89
2018-12-23T23:33:13.441Z,96597.58
2018-12-23T23:35:42.543Z,96589.28
2018-12-23T23:38:11.634Z,96612.92
2018-12-23T23:40:41.641Z,96611.28
2018-12-23T23:43:10.727Z,96616.14
2018-12-23T23:45:39.823Z,96619.61
2018-12-23T23:48:08.921Z,96637.25
2018-12-23T23:50:38.027Z,96644.36
2018-12-23T23:53:07.182Z,96646.83
2018-12-23T23:55:36.216Z,96653.19
2018-12-23T23:58:05.304Z,96666.45
